Time;durP1;ratioP1;P1;durP2;ratioP2;P2;SDS_P1;SDS_P2;PMS_P1;PMS_P2;Temp;Humidity;BMP_temperature;BMP_pressure;BME280_temperature;BME280_humidity;BME280_pressure;Samples;Min_cycle;Max_cycle;Signal;HPM_P1;HPM_P2
2022/04/02 00:01:27;;;;;;;3.28;1.70;;;;;;;19.72;41.37;95514.91;10297156;28;20046;-60
2022/04/02 00:06:47;;;;;;;1.75;1.63;;;;;;;19.70;41.32;95504.41;10270691;28;20101;-60
2022/04/02 00:12:08;;;;;;;2.00;1.50;;;;;;;19.69;41.42;95500.13;10269934;28;20055;-58
2022/04/02 00:17:28;;;;;;;2.10;1.45;;;;;;;19.68;41.26;95500.47;10289415;28;20454;-59
2022/04/02 00:28:26;;;;;;;2.30;1.80;;;;;;;19.65;41.25;95503.91;10297273;28;20502;-60
2022/04/02 00:33:47;;;;;;;2.20;1.50;;;;;;;19.65;41.29;95506.63;10275691;28;20057;-60
2022/04/02 00:39:07;;;;;;;2.05;1.60;;;;;;;19.63;41.31;95501.56;10294528;28;20183;-60
2022/04/02 00:44:27;;;;;;;1.77;1.48;;;;;;;19.61;41.23;95501.13;10279716;28;20061;-59
2022/04/02 00:49:47;;;;;;;3.15;1.50;;;;;;;19.60;41.33;95506.88;10294055;28;20050;-60
2022/04/02 00:55:06;;;;;;;1.63;1.40;;;;;;;19.58;41.20;95501.84;10293865;28;20395;-58
2022/04/02 01:00:26;;;;;;;1.83;1.60;;;;;;;19.58;41.30;95506.47;10293613;28;20422;-59
2022/04/02 01:05:48;;;;;;;2.28;1.52;;;;;;;19.56;41.37;95506.81;10278909;28;20110;-59
2022/04/02 01:11:07;;;;;;;3.53;1.63;;;;;;;19.55;41.09;95510.66;10291709;28;20535;-59
2022/04/02 01:16:27;;;;;;;1.60;1.38;;;;;;;19.53;41.07;95513.72;10285815;28;20050;-59
2022/04/02 01:21:55;;;;;;;2.47;1.80;;;;;;;19.52;41.05;95506.75;10279259;28;20050;-60
2022/04/02 01:27:29;;;;;;;1.60;1.50;;;;;;;19.51;41.17;95499.78;10304005;28;20066;-59
2022/04/02 01:32:51;;;;;;;1.85;1.30;;;;;;;19.49;41.11;95496.66;10292485;28;20498;-60
2022/04/02 01:38:11;;;;;;;1.98;1.38;;;;;;;19.48;41.19;95508.63;10290510;28;20042;-59
2022/04/02 01:43:33;;;;;;;1.70;1.30;;;;;;;19.47;41.13;95504.34;10276427;28;20490;-59
2022/04/02 01:48:52;;;;;;;1.40;1.30;;;;;;;19.47;41.09;95506.25;10277177;28;20051;-59
2022/04/02 01:54:12;;;;;;;1.67;1.40;;;;;;;19.44;40.94;95499.63;10289918;28;20057;-59
2022/04/02 01:59:33;;;;;;;1.70;1.60;;;;;;;19.43;40.97;95497.31;10276777;28;20055;-59
2022/04/02 02:04:53;;;;;;;1.40;1.23;;;;;;;19.42;41.00;95512.69;10304023;28;20074;-59
2022/04/02 02:10:12;;;;;;;1.55;1.45;;;;;;;19.41;41.11;95515.78;10290882;28;20505;-60
2022/04/02 02:15:53;;;;;;;1.50;1.40;;;;;;;19.40;40.93;95514.19;10278972;28;20413;-60
2022/04/02 02:21:13;;;;;;;2.65;1.30;;;;;;;19.37;40.95;95515.69;10319359;28;20660;-59
2022/04/02 02:26:34;;;;;;;2.03;1.52;;;;;;;19.36;41.10;95525.69;10290065;28;20506;-59
2022/04/02 02:31:55;;;;;;;1.38;1.15;;;;;;;19.35;40.89;95529.56;10290192;28;20058;-60
2022/04/02 02:37:15;;;;;;;1.75;1.27;;;;;;;19.34;40.83;95529.91;10278184;28;20047;-60
2022/04/02 02:42:44;;;;;;;1.70;1.40;;;;;;;19.32;40.93;95538.34;10275117;28;20406;-60
2022/04/02 02:48:24;;;;;;;1.50;1.30;;;;;;;19.32;40.91;95529.47;10289649;28;20047;-60
2022/04/02 02:53:48;;;;;;;1.75;1.50;;;;;;;19.31;41.06;95533.31;10289189;28;20395;-60
2022/04/02 02:59:07;;;;;;;1.80;1.40;;;;;;;19.28;40.87;95534.00;10279202;28;20074;-59
2022/04/02 03:04:28;;;;;;;1.40;1.30;;;;;;;19.27;40.85;95533.25;10287274;28;20039;-60
2022/04/02 03:09:53;;;;;;;1.70;1.25;;;;;;;19.25;40.90;95534.72;10288571;28;20051;-60
2022/04/02 03:15:21;;;;;;;1.92;1.27;;;;;;;19.24;40.93;95522.34;10301213;28;20042;-60
2022/04/02 03:20:43;;;;;;;1.45;1.30;;;;;;;19.23;40.99;95529.69;10274115;28;20055;-60
2022/04/02 03:26:06;;;;;;;1.35;1.25;;;;;;;19.22;40.94;95524.63;10244598;28;20125;-60
2022/04/02 03:31:31;;;;;;;1.30;1.20;;;;;;;19.22;40.83;95535.44;10247109;28;20062;-59
2022/04/02 03:36:51;;;;;;;1.65;1.23;;;;;;;19.20;40.65;95537.69;10273592;28;20077;-59
2022/04/02 03:42:11;;;;;;;1.20;1.10;;;;;;;19.19;40.75;95538.81;10273596;28;20047;-59
2022/04/02 03:47:33;;;;;;;1.25;1.15;;;;;;;19.18;40.76;95548.84;10273625;28;20058;-59
2022/04/02 03:52:56;;;;;;;4.00;1.30;;;;;;;19.15;40.84;95542.25;10273252;28;20098;-59
2022/04/02 03:58:21;;;;;;;1.58;1.13;;;;;;;19.13;40.66;95549.91;10273642;28;20426;-60
2022/04/02 04:03:41;;;;;;;1.17;1.08;;;;;;;19.12;40.80;95551.03;10301818;28;20050;-59
2022/04/02 04:09:02;;;;;;;1.27;1.00;;;;;;;19.11;40.71;95562.16;10294088;28;20054;-59
2022/04/02 04:14:25;;;;;;;1.75;1.13;;;;;;;19.09;40.79;95565.25;10305025;28;20047;-60
2022/04/02 04:19:45;;;;;;;1.40;1.30;;;;;;;19.09;40.67;95576.03;10311150;28;20046;-60
2022/04/02 04:25:09;;;;;;;1.55;1.23;;;;;;;19.07;40.82;95575.59;10282671;28;20065;-59
2022/04/02 04:30:29;;;;;;;1.30;1.20;;;;;;;19.07;40.81;95583.72;10297763;28;20054;-59
2022/04/02 04:35:49;;;;;;;1.40;1.30;;;;;;;19.05;40.63;95591.38;10280044;28;20054;-60
2022/04/02 04:41:09;;;;;;;1.52;1.08;;;;;;;19.05;40.77;95598.66;10307294;28;20043;-58
2022/04/02 04:46:30;;;;;;;1.40;1.30;;;;;;;19.03;40.67;95601.72;10294406;28;20050;-60
2022/04/02 04:51:51;;;;;;;1.20;1.10;;;;;;;19.02;40.57;95604.78;10279436;28;20458;-59
2022/04/02 04:57:12;;;;;;;1.27;1.17;;;;;;;19.03;40.77;95604.41;10279232;28;20055;-60
2022/04/02 05:02:37;;;;;;;1.10;1.00;;;;;;;19.02;40.58;95610.94;10278586;28;20043;-59
2022/04/02 05:08:00;;;;;;;1.15;1.00;;;;;;;19.04;40.67;95621.41;10277998;28;20062;-60
2022/04/02 05:13:20;;;;;;;2.30;1.10;;;;;;;19.05;40.75;95621.06;10280039;28;20050;-60
2022/04/02 05:18:44;;;;;;;1.30;1.20;;;;;;;19.06;41.01;95622.63;10278173;28;20410;-58
2022/04/02 05:24:06;;;;;;;1.52;1.20;;;;;;;19.09;41.01;95635.44;10265621;28;20062;-59
2022/04/02 05:29:27;;;;;;;1.20;1.10;;;;;;;19.11;41.07;95626.94;10298971;28;20410;-59
2022/04/02 05:34:47;;;;;;;2.25;1.20;;;;;;;19.12;41.34;95639.34;10277412;28;20101;-58
2022/04/02 05:40:07;;;;;;;2.08;1.05;;;;;;;19.14;41.39;95640.53;10291572;28;20058;-59
2022/04/02 05:45:26;;;;;;;1.45;1.20;;;;;;;19.15;41.40;95633.22;10291740;28;20058;-58
2022/04/02 05:50:45;;;;;;;1.30;1.00;;;;;;;19.17;41.31;95642.56;10291959;28;20055;-57
2022/04/02 05:56:05;;;;;;;2.88;1.17;;;;;;;19.20;41.31;95645.69;10290939;28;20063;-57
2022/04/02 06:01:26;;;;;;;3.63;1.20;;;;;;;19.22;41.41;95648.81;10288972;28;20134;-56
2022/04/02 06:06:45;;;;;;;2.40;1.13;;;;;;;19.25;41.61;95653.50;10300191;28;20047;-56
2022/04/02 06:12:05;;;;;;;1.27;1.17;;;;;;;19.28;41.74;95659.00;10290164;28;20465;-58
2022/04/02 06:17:25;;;;;;;3.00;1.10;;;;;;;19.33;41.70;95674.16;10289372;28;20053;-58
2022/04/02 06:22:45;;;;;;;1.20;1.10;;;;;;;19.35;41.93;95680.78;10286107;28;20453;-57
2022/04/02 06:28:05;;;;;;;1.30;1.13;;;;;;;19.40;41.96;95679.72;10286929;28;20202;-57
2022/04/02 06:33:24;;;;;;;1.55;1.20;;;;;;;19.45;42.12;95667.88;10288661;28;20066;-54
2022/04/02 06:38:44;;;;;;;2.97;1.30;;;;;;;19.50;41.94;95676.50;10275607;28;20055;-58
2022/04/02 06:44:04;;;;;;;1.52;1.35;;;;;;;19.53;41.53;95675.00;10301220;28;20047;-54
2022/04/02 06:49:24;;;;;;;2.40;1.40;;;;;;;19.56;41.37;95669.69;10287297;28;20055;-56
2022/04/02 06:54:43;;;;;;;5.68;1.70;;;;;;;19.62;41.01;95677.50;10302175;28;20486;-58
2022/04/02 07:00:04;;;;;;;1.88;1.50;;;;;;;19.66;40.95;95681.88;10287558;28;20051;-59
2022/04/02 07:05:23;;;;;;;4.70;1.33;;;;;;;19.71;40.83;95680.81;10285765;28;20058;-57
2022/04/02 07:10:43;;;;;;;2.35;1.75;;;;;;;19.75;38.62;95676.31;10276950;28;20062;-53
2022/04/02 07:16:03;;;;;;;2.67;2.17;;;;;;;19.79;38.99;95673.69;10303365;28;20170;-57
2022/04/02 07:21:25;;;;;;;4.22;2.13;;;;;;;19.85;38.70;95681.16;10285722;28;20042;-59
2022/04/02 07:26:45;;;;;;;5.00;2.10;;;;;;;19.92;38.76;95680.53;10286526;28;20611;-59
2022/04/02 07:32:07;;;;;;;3.92;2.20;;;;;;;19.98;38.91;95687.22;10288289;28;20050;-60
2022/04/02 07:37:57;;;;;;;2.40;1.63;;;;;;;20.06;38.88;95693.56;10286811;28;20055;-58
2022/04/02 07:43:24;;;;;;;5.55;1.92;;;;;;;20.11;39.31;95698.69;10278512;28;20486;-58
2022/04/02 07:48:47;;;;;;;3.75;1.83;;;;;;;20.18;39.45;95701.56;10294871;28;20557;-58
2022/04/02 07:54:09;;;;;;;6.88;2.10;;;;;;;20.24;39.93;95705.53;10293327;28;20039;-59
2022/04/02 07:59:42;;;;;;;4.43;1.92;;;;;;;20.32;40.83;95704.53;10288293;28;20057;-60
2022/04/02 08:05:04;;;;;;;3.10;1.83;;;;;;;20.40;42.13;95716.28;10296211;28;20042;-59
2022/04/02 08:10:25;;;;;;;3.17;1.63;;;;;;;20.47;42.39;95712.97;10292919;28;20051;-59
2022/04/02 08:15:45;;;;;;;1.90;1.67;;;;;;;20.52;42.19;95720.78;10281079;28;20105;-57
2022/04/02 08:21:10;;;;;;;3.70;1.70;;;;;;;20.59;42.05;95737.19;10268342;28;20043;-56
2022/04/02 08:27:01;;;;;;;3.70;1.70;;;;;;;20.63;42.21;95739.97;10286870;28;20063;-57
2022/04/02 08:32:26;;;;;;;2.55;1.45;;;;;;;20.63;42.21;95739.97;10293219;28;20061;-57
2022/04/02 08:37:51;;;;;;;3.78;1.60;;;;;;;20.70;41.63;95754.44;10293862;28;20529;-58
2022/04/02 08:43:30;;;;;;;2.10;1.50;;;;;;;20.73;41.32;95756.41;10279679;28;20051;-57
2022/04/02 08:48:57;;;;;;;1.75;1.50;;;;;;;20.76;41.11;95767.66;10268169;28;20388;-56
2022/04/02 08:54:24;;;;;;;2.42;1.70;;;;;;;20.80;41.04;95777.44;10292695;28;20105;-58
2022/04/02 08:59:55;;;;;;;2.15;1.70;;;;;;;20.81;41.20;95784.41;10272804;28;20038;-57
2022/04/02 09:05:23;;;;;;;3.40;1.50;;;;;;;20.82;41.42;95785.97;10284966;28;20681;-51
2022/04/02 09:10:54;;;;;;;4.57;1.50;;;;;;;20.83;41.27;95792.16;10294463;28;20043;-53
2022/04/02 09:16:26;;;;;;;5.80;1.80;;;;;;;20.85;41.55;95795.31;10288176;28;20074;-55
2022/04/02 09:21:57;;;;;;;4.63;1.70;;;;;;;20.87;41.56;95803.84;10292692;28;20058;-57
2022/04/02 09:27:38;;;;;;;6.03;1.60;;;;;;;20.89;41.53;95798.88;10292028;28;20059;-56
2022/04/02 09:33:35;;;;;;;2.65;1.63;;;;;;;20.90;41.48;95803.94;10292503;28;20098;-53
2022/04/02 09:39:31;;;;;;;3.42;1.90;;;;;;;20.91;41.81;95810.91;10275648;28;20055;-54
2022/04/02 09:45:09;;;;;;;3.63;1.60;;;;;;;20.92;41.90;95809.75;10278134;28;20102;-57
2022/04/02 09:50:29;;;;;;;4.95;1.65;;;;;;;20.93;41.95;95818.66;10293092;28;20401;-57
2022/04/02 09:56:08;;;;;;;5.30;1.75;;;;;;;20.94;42.37;95828.38;10292523;28;20410;-59
2022/04/02 10:01:39;;;;;;;15.73;6.03;;;;;;;20.97;42.38;95827.63;10292056;28;20051;-56
2022/04/02 10:07:02;;;;;;;26.23;7.05;;;;;;;20.99;43.61;95828.06;10290772;28;20069;-54
2022/04/02 10:12:27;;;;;;;31.67;8.63;;;;;;;21.01;44.23;95833.94;10273548;28;20102;-58
2022/04/02 10:17:51;;;;;;;29.45;8.25;;;;;;;21.02;43.64;95832.78;10257091;28;20470;-58
2022/04/02 10:23:21;;;;;;;23.40;7.50;;;;;;;21.04;43.98;95830.50;10276009;28;20057;-56
2022/04/02 10:28:41;;;;;;;26.00;7.90;;;;;;;21.05;43.24;95837.50;10277971;28;20055;-57
2022/04/02 10:34:12;;;;;;;11.25;4.82;;;;;;;20.99;38.35;95849.72;10301582;28;20708;-53
2022/04/02 10:39:37;;;;;;;17.00;5.78;;;;;;;20.97;41.06;95856.66;10277684;28;20550;-55
2022/04/02 10:44:59;;;;;;;19.85;6.00;;;;;;;21.00;41.67;95855.94;10250179;28;20106;-53
2022/04/02 10:50:22;;;;;;;9.20;3.42;;;;;;;20.36;28.22;95853.38;10266308;28;20557;-57
2022/04/02 10:55:47;;;;;;;11.80;4.45;;;;;;;20.40;36.16;95865.06;10302720;28;20038;-56
2022/04/02 11:01:07;;;;;;;8.75;3.53;;;;;;;20.59;36.02;95866.28;10305181;28;20074;-56
2022/04/02 11:06:47;;;;;;;8.57;3.40;;;;;;;20.70;35.77;95876.22;10295963;28;20066;-54
2022/04/02 11:12:13;;;;;;;6.32;3.40;;;;;;;20.77;36.36;95877.50;10320168;28;20038;-54
2022/04/02 11:17:35;;;;;;;7.28;3.55;;;;;;;20.80;36.60;95876.81;10297117;28;20057;-56
2022/04/02 11:22:56;;;;;;;7.63;3.22;;;;;;;20.80;36.74;95882.22;10294430;28;20449;-59
2022/04/02 11:28:21;;;;;;;7.80;2.88;;;;;;;20.81;36.96;95886.47;10296127;28;20051;-57
2022/04/02 11:33:51;;;;;;;7.57;3.42;;;;;;;20.84;37.02;95902.03;10287537;28;20051;-56
2022/04/02 11:39:11;;;;;;;8.50;3.30;;;;;;;20.85;37.37;95892.75;10248810;29;20047;-57
2022/04/02 11:44:38;;;;;;;6.47;2.90;;;;;;;20.85;37.61;95898.16;10235475;28;20063;-53
2022/04/02 11:50:08;;;;;;;6.30;2.75;;;;;;;20.84;38.07;95893.91;10298617;28;20047;-58
2022/04/02 11:55:28;;;;;;;7.55;2.83;;;;;;;20.82;38.29;95890.78;10285745;28;20076;-54
2022/04/02 12:00:56;;;;;;;6.93;3.15;;;;;;;20.80;38.60;95893.06;10285592;28;20050;-56
2022/04/02 12:06:16;;;;;;;;;;;;;;;20.79;38.81;95905.00;10284940;28;20479;-54
2022/04/02 12:11:36;;;;;;;4.72;2.75;;;;;;;20.78;38.89;95903.41;10286309;28;20377;-54
2022/04/02 12:17:15;;;;;;;8.73;3.35;;;;;;;20.77;39.13;95901.88;10283775;28;20058;-59
2022/04/02 12:22:39;;;;;;;8.27;2.80;;;;;;;20.75;39.21;95904.91;10286937;28;20074;-58
2022/04/02 12:27:59;;;;;;;5.10;2.50;;;;;;;20.74;39.36;95900.66;10297680;28;20083;-53
2022/04/02 12:33:21;;;;;;;4.55;2.22;;;;;;;20.74;39.40;95893.31;10279764;28;20050;-52
2022/04/02 12:38:41;;;;;;;5.38;2.60;;;;;;;20.73;39.43;95902.56;10293847;28;20058;-57
2022/04/02 12:44:09;;;;;;;2.80;1.73;;;;;;;20.72;39.54;95901.00;10298665;28;20062;-53
2022/04/02 12:49:34;;;;;;;5.43;3.28;;;;;;;20.74;39.96;95906.84;10281840;28;20062;-53
2022/04/02 12:54:55;;;;;;;7.88;4.57;;;;;;;20.73;39.82;95897.16;10312136;28;20485;-53
2022/04/02 13:00:25;;;;;;;18.60;8.05;;;;;;;20.74;40.90;95897.94;10278644;28;20066;-54
2022/04/02 13:05:50;;;;;;;21.77;8.40;;;;;;;20.72;41.61;95906.41;10300925;28;20118;-54
2022/04/02 13:11:13;;;;;;;19.65;7.65;;;;;;;20.72;41.88;95901.00;10288458;28;20055;-56
2022/04/02 13:16:38;;;;;;;26.40;7.47;;;;;;;20.71;41.81;95899.44;10272038;28;20118;-56
2022/04/02 13:22:04;;;;;;;18.63;6.50;;;;;;;20.71;42.12;95912.94;10276410;28;20050;-55
2022/04/02 13:27:27;;;;;;;19.65;5.65;;;;;;;20.70;41.84;95907.91;10274686;28;20054;-57
2022/04/02 13:33:05;;;;;;;16.70;5.30;;;;;;;20.70;41.86;95902.50;10286783;28;20057;-56
2022/04/02 13:38:28;;;;;;;18.20;5.05;;;;;;;20.70;41.86;95908.69;10286813;28;20457;-54
2022/04/02 13:43:53;;;;;;;16.17;4.70;;;;;;;20.68;42.30;95908.25;10284320;28;20042;-55
2022/04/02 13:49:26;;;;;;;14.00;4.70;;;;;;;20.69;42.16;95912.53;10285177;28;20059;-53
2022/04/02 13:55:00;;;;;;;15.95;4.55;;;;;;;20.68;42.38;95910.97;10288264;28;20066;-55
2022/04/02 14:00:23;;;;;;;18.80;4.43;;;;;;;20.67;42.96;95909.38;10289099;28;20137;-56
2022/04/02 14:05:48;;;;;;;15.02;4.30;;;;;;;20.67;43.14;95914.03;10279514;28;20074;-55
2022/04/02 14:11:35;;;;;;;15.23;4.20;;;;;;;20.65;43.51;95910.88;10274056;28;20498;-54
2022/04/02 14:17:15;;;;;;;10.07;3.83;;;;;;;20.65;42.98;95916.31;10260946;28;20520;-51
2022/04/02 14:23:01;;;;;;;10.45;3.70;;;;;;;20.64;42.91;95925.53;10274340;28;20050;-52
2022/04/02 14:28:33;;;;;;;14.43;3.95;;;;;;;20.61;42.76;95927.03;10282820;28;20051;-51
2022/04/02 14:34:11;;;;;;;7.68;3.30;;;;;;;20.59;42.66;95917.69;10282387;28;20104;-52
2022/04/02 14:39:31;;;;;;;10.30;3.45;;;;;;;20.58;42.66;95926.91;10288481;28;20074;-57
2022/04/02 14:45:12;;;;;;;7.35;3.22;;;;;;;20.57;42.59;95941.59;10284732;28;20483;-51
2022/04/02 14:51:08;;;;;;;9.02;3.00;;;;;;;20.56;42.55;95935.38;10285258;28;20129;-58
2022/04/02 14:56:31;;;;;;;8.15;3.00;;;;;;;20.54;42.56;95948.47;10273415;28;20046;-60
2022/04/02 15:02:17;;;;;;;9.40;2.92;;;;;;;20.54;42.73;95937.66;10279370;28;20042;-59
2022/04/02 15:07:52;;;;;;;7.22;2.97;;;;;;;20.52;42.39;95953.47;10282342;28;20058;-58
2022/04/02 15:13:19;;;;;;;6.18;2.55;;;;;;;20.51;42.50;95954.59;10282998;28;20421;-57
2022/04/02 15:18:39;;;;;;;6.45;2.67;;;;;;;20.50;42.37;95955.72;10295677;28;20478;-59
2022/04/02 15:24:01;;;;;;;6.00;3.00;;;;;;;20.49;42.75;95959.59;10286072;28;20065;-57
2022/04/02 15:29:24;;;;;;;8.32;2.92;;;;;;;20.47;42.96;95959.16;10274781;28;20444;-56
2022/04/02 15:34:49;;;;;;;8.55;2.80;;;;;;;20.47;42.39;95959.16;10285336;28;20072;-53
2022/04/02 15:40:09;;;;;;;4.72;2.63;;;;;;;20.45;42.66;95972.25;10283120;28;20097;-56
2022/04/02 15:45:31;;;;;;;10.48;3.83;;;;;;;20.45;43.91;95967.63;10290469;28;20046;-56
2022/04/02 15:51:05;;;;;;;7.72;3.85;;;;;;;20.45;44.27;95969.53;10267349;28;20047;-54
2022/04/02 15:57:12;;;;;;;9.70;3.78;;;;;;;20.44;45.67;95971.44;10264911;28;20059;-57
2022/04/02 16:02:37;;;;;;;5.57;3.28;;;;;;;20.45;45.57;95977.66;10287220;28;20046;-56
2022/04/02 16:08:16;;;;;;;8.25;3.00;;;;;;;20.45;44.94;95988.47;10292892;28;20047;-56
2022/04/02 16:14:08;;;;;;;6.60;3.15;;;;;;;20.43;44.91;96002.34;10295483;28;20494;-57
2022/04/02 16:19:32;;;;;;;5.60;2.50;;;;;;;20.38;43.58;95991.78;10281765;28;20077;-56
2022/04/02 16:24:56;;;;;;;4.15;2.42;;;;;;;20.37;43.82;96000.25;10286983;28;20079;-56
2022/04/02 16:30:15;;;;;;;5.30;2.80;;;;;;;20.33;41.91;96005.59;10305040;28;20042;-54
2022/04/02 16:35:35;;;;;;;4.60;2.70;;;;;;;20.30;42.89;96001.63;10291943;28;20051;-54
2022/04/02 16:40:57;;;;;;;6.55;2.58;;;;;;;20.31;43.34;96019.44;10273490;28;20046;-56
2022/04/02 16:46:16;;;;;;;7.90;2.75;;;;;;;20.31;43.12;96032.97;10301517;28;20043;-54
2022/04/02 16:51:36;;;;;;;3.78;2.10;;;;;;;20.28;42.00;96041.75;10290992;28;20050;-56
2022/04/02 16:56:56;;;;;;;4.30;2.22;;;;;;;20.25;42.39;96042.47;10276623;28;20051;-56
2022/04/02 17:02:33;;;;;;;5.10;2.35;;;;;;;20.24;42.43;96048.22;10280276;28;20066;-57
2022/04/02 17:07:54;;;;;;;4.50;2.20;;;;;;;20.24;42.62;96056.34;10287462;28;20070;-56
2022/04/02 17:13:18;;;;;;;3.90;2.30;;;;;;;20.23;42.66;96057.47;10276450;28;20486;-54
2022/04/02 17:18:38;;;;;;;3.58;2.10;;;;;;;20.22;42.73;96061.31;10276138;28;20065;-56
2022/04/02 17:23:58;;;;;;;4.85;2.03;;;;;;;20.21;42.64;96073.25;10294461;28;20074;-54
2022/04/02 17:29:23;;;;;;;4.13;2.38;;;;;;;20.20;42.70;96079.81;10285520;28;20055;-56
2022/04/02 17:34:49;;;;;;;5.03;2.10;;;;;;;20.17;42.77;96080.47;10283075;28;20055;-55
2022/04/02 17:40:13;;;;;;;3.20;1.90;;;;;;;20.14;42.70;96081.97;10271636;28;20601;-57
2022/04/02 17:45:38;;;;;;;2.97;1.92;;;;;;;20.12;42.55;96082.31;10288597;28;20485;-55
2022/04/02 17:51:01;;;;;;;3.72;1.83;;;;;;;20.10;42.70;96089.97;10286294;28;20054;-56
2022/04/02 17:56:24;;;;;;;3.08;1.80;;;;;;;20.09;42.65;96095.72;10288924;28;20047;-57
2022/04/02 18:01:43;;;;;;;2.45;1.90;;;;;;;20.08;42.71;96104.97;10288828;28;20461;-56
2022/04/02 18:07:15;;;;;;;2.72;1.85;;;;;;;20.06;42.71;96112.66;10301778;28;20039;-56
2022/04/02 18:12:34;;;;;;;4.30;2.33;;;;;;;20.06;42.82;96118.06;10289333;28;20047;-53
2022/04/02 18:17:54;;;;;;;2.20;1.80;;;;;;;20.02;42.91;96120.66;10302041;28;20039;-57
2022/04/02 18:23:14;;;;;;;2.08;1.85;;;;;;;20.02;42.98;96131.47;10298521;28;20533;-56
2022/04/02 18:28:34;;;;;;;2.63;1.80;;;;;;;20.00;41.82;96135.66;10285076;28;20075;-55
2022/04/02 18:33:53;;;;;;;3.90;1.98;;;;;;;19.98;42.70;96148.72;10291436;28;20047;-56
2022/04/02 18:39:13;;;;;;;2.97;1.52;;;;;;;19.97;43.05;96155.25;10276208;28;20473;-53
2022/04/02 18:44:32;;;;;;;5.60;1.95;;;;;;;19.95;42.84;96161.81;10289581;28;20057;-57
2022/04/02 18:49:52;;;;;;;3.25;1.85;;;;;;;19.94;43.06;96170.25;10285460;28;20047;-57
2022/04/02 18:55:12;;;;;;;5.35;1.80;;;;;;;19.92;43.16;96170.59;10288385;28;20062;-56
2022/04/02 19:00:32;;;;;;;3.45;1.80;;;;;;;19.90;43.35;96174.78;10289786;28;20053;-56
2022/04/02 19:05:54;;;;;;;4.15;2.28;;;;;;;19.89;43.46;96187.47;10286091;28;20104;-55
2022/04/02 19:11:13;;;;;;;3.22;1.75;;;;;;;19.89;43.54;96192.88;10284407;28;20505;-55
2022/04/02 19:16:32;;;;;;;3.00;1.70;;;;;;;19.87;43.66;96197.06;10285922;28;20055;-55
2022/04/02 19:21:52;;;;;;;4.13;1.80;;;;;;;19.86;43.77;96207.09;10298268;28;20043;-56
2022/04/02 19:27:12;;;;;;;2.95;1.83;;;;;;;19.84;43.63;96209.34;10287537;28;20522;-57
2022/04/02 19:32:31;;;;;;;2.55;1.80;;;;;;;19.83;43.88;96223.97;10280168;28;20098;-56
2022/04/02 19:37:51;;;;;;;4.40;1.90;;;;;;;19.82;43.83;96227.03;10285548;28;20050;-56
2022/04/02 19:43:10;;;;;;;3.53;1.90;;;;;;;19.79;43.74;96223.09;10285048;28;20047;-54
2022/04/02 19:48:30;;;;;;;2.67;1.63;;;;;;;19.78;43.77;96226.94;10287631;28;20055;-57
2022/04/02 19:53:50;;;;;;;3.00;1.83;;;;;;;19.78;43.90;96231.53;10286580;28;20042;-54
2022/04/02 19:59:10;;;;;;;3.20;1.70;;;;;;;19.76;43.91;96240.00;10297982;28;20039;-55
2022/04/02 20:04:30;;;;;;;2.90;1.63;;;;;;;19.75;43.92;96241.09;10285906;28;20062;-54
2022/04/02 20:09:51;;;;;;;2.85;1.70;;;;;;;19.73;43.95;96254.16;10290859;28;20074;-57
2022/04/02 20:15:12;;;;;;;2.95;1.80;;;;;;;19.71;44.22;96251.81;10283290;28;20135;-56
2022/04/02 20:20:31;;;;;;;3.08;2.00;;;;;;;19.71;44.17;96256.41;10275779;28;20065;-56
2022/04/02 20:25:51;;;;;;;2.97;1.60;;;;;;;19.70;44.19;96268.34;10286111;28;20429;-56
2022/04/02 20:31:17;;;;;;;2.85;1.63;;;;;;;19.68;43.94;96271.38;10286405;28;20093;-56
2022/04/02 20:36:36;;;;;;;1.63;1.30;;;;;;;19.67;44.27;96277.13;10251444;28;20638;-57
2022/04/02 20:41:57;;;;;;;2.60;1.50;;;;;;;19.63;43.56;96274.28;10259335;28;20050;-58
2022/04/02 20:47:16;;;;;;;2.30;1.80;;;;;;;19.64;43.53;96283.19;10285034;28;20070;-56
2022/04/02 20:52:36;;;;;;;3.35;1.75;;;;;;;19.62;43.79;96283.53;10269277;28;20070;-57
2022/04/02 20:57:55;;;;;;;5.20;1.70;;;;;;;19.62;43.97;96291.66;10282041;28;20059;-56
2022/04/02 21:03:15;;;;;;;2.05;1.65;;;;;;;19.60;44.05;96301.19;10306979;28;20042;-56
2022/04/02 21:08:35;;;;;;;3.70;1.20;;;;;;;19.60;44.10;96302.00;10289500;28;20066;-56
2022/04/02 21:13:54;;;;;;;3.65;1.30;;;;;;;19.58;44.36;96296.13;10318884;28;20046;-57
2022/04/02 21:19:13;;;;;;;1.70;1.40;;;;;;;19.59;44.36;96313.16;10298075;28;20085;-56
2022/04/02 21:24:33;;;;;;;5.32;1.55;;;;;;;19.55;44.38;96326.53;10256269;28;20059;-56
2022/04/02 21:29:52;;;;;;;2.47;1.13;;;;;;;19.55;44.54;96321.91;10274912;28;20043;-57
2022/04/02 21:35:12;;;;;;;3.72;1.33;;;;;;;19.53;44.58;96334.97;10279895;28;20051;-57
2022/04/02 21:40:32;;;;;;;3.13;1.40;;;;;;;19.52;44.68;96338.81;10263635;28;20491;-56
2022/04/02 21:45:52;;;;;;;3.00;1.40;;;;;;;19.52;44.91;96335.28;10263911;28;20042;-56
2022/04/02 21:51:11;;;;;;;2.17;1.30;;;;;;;19.51;44.64;96339.91;10291643;28;20467;-53
2022/04/02 21:56:31;;;;;;;1.35;1.20;;;;;;;19.50;44.69;96343.75;10285063;28;20069;-55
2022/04/02 22:01:57;;;;;;;2.95;1.30;;;;;;;19.49;44.59;96350.25;10293222;28;20054;-54
2022/04/02 22:07:18;;;;;;;2.03;1.20;;;;;;;19.47;44.34;96357.91;10284046;28;20067;-56
2022/04/02 22:12:38;;;;;;;2.17;1.17;;;;;;;19.46;44.50;96355.53;10290533;28;20395;-55
2022/04/02 22:17:57;;;;;;;1.52;1.27;;;;;;;19.45;44.52;96360.16;10302245;28;20046;-56
2022/04/02 22:23:17;;;;;;;2.05;1.30;;;;;;;19.43;44.58;96361.63;10281290;28;20046;-55
2022/04/02 22:28:36;;;;;;;2.78;1.40;;;;;;;19.42;44.67;96366.22;10304209;28;20057;-57
2022/04/02 22:33:56;;;;;;;1.52;1.20;;;;;;;19.41;44.57;96372.75;10294259;28;20089;-56
2022/04/02 22:39:15;;;;;;;2.08;1.42;;;;;;;19.39;44.64;96380.41;10299109;28;20046;-54
2022/04/02 22:44:34;;;;;;;2.75;1.30;;;;;;;19.38;44.45;96386.91;10318851;28;20152;-54
2022/04/02 22:49:54;;;;;;;2.70;1.20;;;;;;;19.37;44.64;96390.75;10286822;28;20110;-55
2022/04/02 22:55:14;;;;;;;2.67;1.30;;;;;;;19.36;44.58;96381.06;10290079;28;20054;-56
2022/04/02 23:00:34;;;;;;;1.60;1.00;;;;;;;19.34;44.66;96391.41;10317487;28;20042;-57
2022/04/02 23:05:53;;;;;;;3.22;1.40;;;;;;;19.34;44.50;96402.22;10307858;28;20055;-57
2022/04/02 23:11:14;;;;;;;2.08;1.20;;;;;;;19.31;44.68;96409.09;10300199;28;20046;-56
2022/04/02 23:16:34;;;;;;;1.92;1.10;;;;;;;19.32;44.80;96415.25;10280995;28;20058;-53
2022/04/02 23:21:53;;;;;;;2.53;1.42;;;;;;;19.30;44.56;96422.91;10299509;28;20054;-56
2022/04/02 23:27:13;;;;;;;1.75;1.10;;;;;;;19.27;44.43;96418.19;10290044;28;20055;-57
2022/04/02 23:32:33;;;;;;;2.65;1.20;;;;;;;19.26;44.37;96422.00;10288372;28;20054;-54
2022/04/02 23:37:52;;;;;;;2.38;1.10;;;;;;;19.26;44.27;96427.41;10298770;28;20035;-56
2022/04/02 23:43:12;;;;;;;1.73;1.20;;;;;;;19.23;44.31;96428.03;10284305;28;20073;-53
2022/04/02 23:48:33;;;;;;;1.63;1.02;;;;;;;19.22;44.32;96426.47;10285634;28;20082;-54
2022/04/02 23:53:52;;;;;;;1.40;1.00;;;;;;;19.21;44.18;96432.97;10297605;28;20042;-55
2022/04/02 23:59:11;;;;;;;2.45;1.30;;;;;;;19.19;44.15;96437.94;10284987;28;20082;-57
